Time;durP1;ratioP1;P1;durP2;ratioP2;P2;SDS_P1;SDS_P2;PMS_P1;PMS_P2;Temp;Humidity;BMP_temperature;BMP_pressure;BME280_temperature;BME280_humidity;BME280_pressure;Samples;Min_cycle;Max_cycle;Signal;HPM_P1;HPM_P2
2022/01/07 00:00:47;;;;;;;11.97;7.00;;;2.30;1.00;;;;;;5013064;28;20550;-73
2022/01/07 00:03:14;;;;;;;12.63;6.97;;;2.30;1.00;;;;;;5014177;28;20651;-69
2022/01/07 00:05:41;;;;;;;11.40;7.13;;;2.30;1.00;;;;;;5013864;28;20419;-69
2022/01/07 00:08:07;;;;;;;15.50;7.87;;;2.30;1.00;;;;;;5014078;28;20398;-73
2022/01/07 00:10:33;;;;;;;7.03;6.43;;;2.30;1.00;;;;;;5012801;28;20435;-73
2022/01/07 00:12:59;;;;;;;10.50;7.77;;;2.20;1.00;;;;;;5014040;28;20177;-73
2022/01/07 00:15:24;;;;;;;11.00;8.70;;;2.30;1.00;;;;;;5013716;28;20925;-69
2022/01/07 00:17:50;;;;;;;13.40;6.93;;;2.30;1.00;;;;;;5013768;28;20188;-69
2022/01/07 00:20:17;;;;;;;15.33;7.37;;;2.30;1.00;;;;;;5012649;28;20196;-74
2022/01/07 00:22:44;;;;;;;19.73;7.17;;;2.30;1.00;;;;;;5013927;28;20176;-73
2022/01/07 00:25:11;;;;;;;17.87;8.63;;;2.30;1.00;;;;;;5013522;28;20907;-70
2022/01/07 00:27:37;;;;;;;13.57;8.17;;;2.20;1.00;;;;;;5013381;28;20415;-73
2022/01/07 00:30:09;;;;;;;10.37;7.33;;;2.20;1.00;;;;;;4995023;28;20431;-69
2022/01/07 00:32:35;;;;;;;14.90;9.17;;;2.20;1.00;;;;;;5013444;28;20422;-71
2022/01/07 00:35:02;;;;;;;10.43;7.97;;;2.20;1.00;;;;;;5013661;28;20506;-74
2022/01/07 00:37:28;;;;;;;21.03;9.37;;;2.20;1.00;;;;;;5013204;28;20427;-69
2022/01/07 00:39:54;;;;;;;24.93;10.07;;;2.30;1.00;;;;;;5012652;28;20427;-72
2022/01/07 00:42:19;;;;;;;15.40;7.77;;;2.30;1.00;;;;;;5013314;28;20530;-69
2022/01/07 00:44:45;;;;;;;11.37;8.03;;;2.30;1.00;;;;;;5013627;28;20256;-70
2022/01/07 00:47:11;;;;;;;19.23;9.83;;;2.30;1.00;;;;;;5013206;28;20180;-71
2022/01/07 00:49:37;;;;;;;12.40;8.77;;;2.30;1.00;;;;;;5012524;28;20165;-69
2022/01/07 00:52:03;;;;;;;28.80;11.50;;;2.20;1.00;;;;;;5013235;28;20838;-73
2022/01/07 00:54:29;;;;;;;15.23;9.77;;;2.30;1.00;;;;;;5013597;28;20406;-69
2022/01/07 00:56:55;;;;;;;16.60;10.40;;;2.30;1.00;;;;;;5013491;28;20771;-69
2022/01/07 00:59:21;;;;;;;16.30;8.60;;;2.30;1.00;;;;;;5012442;28;20203;-69
2022/01/07 01:01:47;;;;;;;18.13;10.00;;;2.30;1.00;;;;;;4998335;28;20561;-73
2022/01/07 01:04:13;;;;;;;13.50;9.10;;;2.30;1.00;;;;;;5017584;28;20490;-70
2022/01/07 01:06:41;;;;;;;17.93;9.80;;;2.30;1.00;;;;;;5017207;28;20419;-70
2022/01/07 01:09:10;;;;;;;16.00;9.80;;;2.30;1.00;;;;;;5016532;28;20414;-73
2022/01/07 01:11:36;;;;;;;13.47;10.53;;;2.30;1.00;;;;;;5016888;28;20469;-70
2022/01/07 01:14:02;;;;;;;16.90;8.30;;;2.40;1.00;;;;;;5017213;28;20407;-70
2022/01/07 01:16:28;;;;;;;28.47;9.40;;;2.30;1.00;;;;;;5016825;28;20492;-73
2022/01/07 01:18:54;;;;;;;12.90;9.47;;;2.30;1.00;;;;;;5016297;28;20799;-73
2022/01/07 01:21:19;;;;;;;23.43;10.37;;;2.30;1.00;;;;;;5016842;28;20203;-73
2022/01/07 01:23:45;;;;;;;18.03;10.40;;;2.30;1.00;;;;;;5016940;28;20172;-73
2022/01/07 01:26:14;;;;;;;24.53;11.20;;;2.30;1.00;;;;;;5016828;28;20250;-70
2022/01/07 01:28:40;;;;;;;17.00;10.70;;;2.30;1.00;;;;;;5016169;28;20494;-70
2022/01/07 01:31:06;;;;;;;23.00;12.27;;;2.30;1.00;;;;;;5016556;28;20533;-72
2022/01/07 01:33:32;;;;;;;15.13;9.40;;;2.30;1.00;;;;;;5016788;28;20511;-69
2022/01/07 01:35:59;;;;;;;18.40;10.67;;;2.30;1.00;;;;;;5016392;28;21043;-73
2022/01/07 01:38:27;;;;;;;22.53;10.47;;;2.40;1.00;;;;;;5016781;28;20508;-74
2022/01/07 01:40:53;;;;;;;21.90;11.57;;;2.30;1.00;;;;;;5015747;28;20953;-71
2022/01/07 01:43:19;;;;;;;16.50;12.00;;;2.30;1.00;;;;;;5016707;28;20411;-73
2022/01/07 01:45:44;;;;;;;13.63;9.50;;;2.30;1.00;;;;;;5016228;28;20939;-72
2022/01/07 01:48:10;;;;;;;16.47;9.97;;;2.30;1.00;;;;;;5016596;28;20210;-70
2022/01/07 01:50:36;;;;;;;13.30;10.27;;;2.30;1.00;;;;;;5014983;28;20214;-74
2022/01/07 01:53:02;;;;;;;27.20;12.03;;;2.30;1.00;;;;;;5016370;28;20528;-73
2022/01/07 01:55:28;;;;;;;19.40;11.27;;;2.30;1.00;;;;;;4999285;28;20180;-70
2022/01/07 01:57:56;;;;;;;9.95;7.60;;;2.30;1.00;;;;;;5016150;28;20554;-70
2022/01/07 02:00:24;;;;;;;19.37;10.70;;;2.40;1.00;;;;;;5015409;28;20282;-73
2022/01/07 02:02:50;;;;;;;22.23;11.27;;;2.40;1.00;;;;;;5016189;28;20419;-72
2022/01/07 02:05:15;;;;;;;17.00;11.50;;;2.40;1.00;;;;;;5016402;28;20179;-71
2022/01/07 02:07:41;;;;;;;19.30;11.27;;;2.30;1.00;;;;;;5015980;28;20911;-72
2022/01/07 02:10:15;;;;;;;16.13;12.53;;;2.30;1.00;;;;;;5015164;28;20189;-72
2022/01/07 02:12:41;;;;;;;18.73;10.57;;;2.30;1.00;;;;;;5015338;28;20419;-73
2022/01/07 02:15:09;;;;;;;15.80;10.83;;;2.30;1.00;;;;;;5016278;28;20395;-73
2022/01/07 02:17:35;;;;;;;23.73;11.43;;;2.40;1.00;;;;;;5015701;28;20411;-74
2022/01/07 02:20:01;;;;;;;34.60;12.10;;;2.30;1.00;;;;;;5015061;28;20445;-73
2022/01/07 02:22:26;;;;;;;15.33;11.60;;;2.30;1.00;;;;;;5015776;28;20423;-74
2022/01/07 02:24:53;;;;;;;14.70;11.13;;;2.30;1.00;;;;;;5015976;28;20175;-72
2022/01/07 02:27:20;;;;;;;16.10;11.43;;;2.30;1.00;;;;;;5015575;28;20255;-72
2022/01/07 02:29:48;;;;;;;31.63;14.10;;;2.30;1.00;;;;;;5014841;28;20262;-73
2022/01/07 02:32:14;;;;;;;25.93;10.50;;;2.30;1.00;;;;;;5015362;28;20415;-74
2022/01/07 02:34:40;;;;;;;21.20;11.50;;;2.40;1.00;;;;;;5015743;28;20403;-74
2022/01/07 02:37:05;;;;;;;20.83;12.90;;;2.30;1.00;;;;;;5015532;28;20896;-73
2022/01/07 02:39:31;;;;;;;22.13;12.00;;;2.30;1.00;;;;;;5014049;28;20466;-72
2022/01/07 02:41:57;;;;;;;25.30;12.80;;;2.30;1.00;;;;;;5015622;28;20220;-74
2022/01/07 02:44:22;;;;;;;14.93;9.13;;;2.20;1.00;;;;;;5014855;28;20167;-74
2022/01/07 02:46:48;;;;;;;19.40;10.00;;;2.30;1.00;;;;;;5015421;28;20164;-72
2022/01/07 02:49:17;;;;;;;12.60;10.73;;;2.30;1.00;;;;;;5014339;28;20259;-73
2022/01/07 02:51:43;;;;;;;22.20;11.23;;;2.30;1.00;;;;;;5015226;28;20449;-74
2022/01/07 02:54:10;;;;;;;28.87;11.57;;;2.30;1.00;;;;;;5014834;28;20446;-74
2022/01/07 02:56:37;;;;;;;15.45;10.07;;;2.40;1.00;;;;;;5015206;28;20469;-71
2022/01/07 02:59:04;;;;;;;18.50;10.95;;;2.30;1.00;;;;;;5013562;28;20200;-74
2022/01/07 03:01:29;;;;;;;24.67;11.80;;;2.30;1.00;;;;;;4978282;28;20203;-73
2022/01/07 03:03:55;;;;;;;21.23;11.60;;;2.40;1.00;;;;;;4995732;28;20388;-72
2022/01/07 03:06:21;;;;;;;18.90;12.07;;;2.30;1.00;;;;;;5009298;28;20207;-72
2022/01/07 03:08:48;;;;;;;28.70;13.87;;;2.30;1.00;;;;;;5013942;28;20188;-72
2022/01/07 03:11:14;;;;;;;19.53;13.03;;;2.30;1.00;;;;;;5014656;28;20291;-72
2022/01/07 03:13:40;;;;;;;20.70;11.60;;;2.40;1.00;;;;;;5014588;28;20427;-74
2022/01/07 03:16:06;;;;;;;33.13;13.40;;;2.40;1.00;;;;;;5014693;28;20415;-72
2022/01/07 03:18:33;;;;;;;17.37;12.47;;;2.40;1.00;;;;;;5013947;28;20204;-72
2022/01/07 03:21:00;;;;;;;27.73;13.00;;;2.40;1.00;;;;;;5014672;28;20188;-73
2022/01/07 03:23:26;;;;;;;23.87;13.60;;;2.40;1.00;;;;;;5014624;28;20411;-74
2022/01/07 03:25:53;;;;;;;19.43;11.70;;;2.40;1.00;;;;;;5013993;28;20431;-73
2022/01/07 03:28:19;;;;;;;26.00;12.43;;;2.40;1.00;;;;;;5014764;28;20426;-75
2022/01/07 03:30:46;;;;;;;16.47;10.87;;;2.40;1.00;;;;;;5013366;28;20454;-74
2022/01/07 03:33:12;;;;;;;22.83;11.00;;;2.40;1.00;;;;;;5014793;28;20429;-71
2022/01/07 03:35:37;;;;;;;29.20;11.20;;;2.40;1.00;;;;;;5014400;28;20509;-71
2022/01/07 03:38:04;;;;;;;31.77;12.60;;;2.40;1.00;;;;;;5014500;28;20192;-74
2022/01/07 03:40:30;;;;;;;17.90;11.97;;;2.40;1.00;;;;;;5013321;28;20200;-73
2022/01/07 03:42:56;;;;;;;21.23;10.80;;;2.40;1.00;;;;;;5014554;28;20427;-71
2022/01/07 03:45:22;;;;;;;14.50;10.97;;;2.40;1.00;;;;;;5014011;28;20408;-71
2022/01/07 03:47:50;;;;;;;23.73;10.80;;;2.40;1.00;;;;;;5014479;28;20450;-73
2022/01/07 03:50:17;;;;;;;20.60;11.07;;;2.40;1.00;;;;;;5013094;28;20188;-72
2022/01/07 03:52:43;;;;;;;19.70;11.13;;;2.40;1.00;;;;;;4994550;28;20187;-73
2022/01/07 03:55:12;;;;;;;23.20;9.50;;;2.40;1.00;;;;;;4994629;28;20404;-73
2022/01/07 03:57:38;;;;;;;23.10;11.03;;;2.50;1.00;;;;;;5013336;28;20423;-73
2022/01/07 04:00:10;;;;;;;17.17;11.00;;;2.40;1.00;;;;;;5013438;28;20438;-73
2022/01/07 04:02:35;;;;;;;19.93;9.87;;;2.30;1.00;;;;;;5014034;28;20415;-72
2022/01/07 04:05:01;;;;;;;19.43;10.43;;;2.40;1.00;;;;;;5014053;28;20884;-74
2022/01/07 04:07:30;;;;;;;19.37;10.50;;;2.40;1.00;;;;;;5013832;28;20176;-73
2022/01/07 04:09:57;;;;;;;20.63;13.83;;;2.40;1.00;;;;;;5013165;28;20208;-71
2022/01/07 04:12:22;;;;;;;15.33;8.80;;;2.40;1.00;;;;;;5013707;28;20422;-74
2022/01/07 04:14:53;;;;;;;17.07;10.23;;;2.30;1.00;;;;;;5013915;28;20404;-73
2022/01/07 04:17:19;;;;;;;13.32;7.78;;;2.40;1.00;;;;;;5013783;28;20218;-73
2022/01/07 04:19:44;;;;;;;16.50;9.33;;;2.30;1.00;;;;;;5012963;28;20287;-71
2022/01/07 04:22:10;;;;;;;13.80;10.13;;;2.30;1.00;;;;;;5013638;28;20172;-71
2022/01/07 04:24:35;;;;;;;19.23;10.00;;;2.30;1.00;;;;;;5013825;28;20375;-71
2022/01/07 04:27:01;;;;;;;18.37;10.03;;;2.30;1.00;;;;;;5013441;28;20175;-71
2022/01/07 04:29:27;;;;;;;27.67;9.97;;;2.30;1.00;;;;;;5012886;28;20184;-70
2022/01/07 04:31:52;;;;;;;17.70;10.07;;;2.30;1.00;;;;;;4995928;28;20665;-73
2022/01/07 04:34:18;;;;;;;17.53;9.60;;;2.20;1.00;;;;;;5013825;28;20203;-71
2022/01/07 04:36:43;;;;;;;21.30;9.93;;;2.30;1.00;;;;;;5013232;28;20251;-71
2022/01/07 04:39:09;;;;;;;20.93;8.70;;;2.20;1.00;;;;;;5012578;28;20199;-74
2022/01/07 04:41:34;;;;;;;25.57;10.10;;;2.20;1.00;;;;;;5013452;28;20196;-72
2022/01/07 04:44:00;;;;;;;16.60;9.37;;;2.20;1.00;;;;;;5013836;28;20164;-71
2022/01/07 04:46:26;;;;;;;15.90;9.43;;;2.30;1.00;;;;;;5013430;28;20180;-70
2022/01/07 04:48:51;;;;;;;17.13;10.47;;;2.20;1.00;;;;;;5012716;28;20180;-70
2022/01/07 04:51:17;;;;;;;22.33;8.30;;;2.20;1.00;;;;;;5013068;28;20207;-74
2022/01/07 04:53:42;;;;;;;25.60;9.03;;;2.20;1.00;;;;;;4996326;28;20668;-70
2022/01/07 04:56:08;;;;;;;18.93;10.43;;;2.20;1.00;;;;;;5013581;28;20171;-71
2022/01/07 04:58:34;;;;;;;16.17;8.57;;;2.20;1.00;;;;;;5012859;28;20191;-74
2022/01/07 05:00:59;;;;;;;23.33;9.60;;;2.10;1.00;;;;;;5013393;28;20203;-72
2022/01/07 05:03:25;;;;;;;21.33;10.13;;;2.10;1.00;;;;;;5013588;28;20192;-72
2022/01/07 05:06:01;;;;;;;15.60;8.57;;;2.10;1.00;;;;;;4995752;28;20629;-70
2022/01/07 05:08:27;;;;;;;11.50;8.77;;;2.10;1.00;;;;;;5013450;28;20179;-71
2022/01/07 05:10:53;;;;;;;18.50;8.97;;;2.00;1.00;;;;;;4994969;28;20204;-70
2022/01/07 05:13:18;;;;;;;10.23;8.17;;;2.10;1.00;;;;;;5013441;28;20164;-73
2022/01/07 05:15:44;;;;;;;17.43;8.77;;;2.10;1.00;;;;;;5013141;28;20533;-74
2022/01/07 05:18:09;;;;;;;15.57;7.80;;;2.10;1.00;;;;;;5013286;28;20698;-74
2022/01/07 05:20:35;;;;;;;20.37;9.50;;;2.10;1.00;;;;;;4994724;28;20193;-71
2022/01/07 05:23:01;;;;;;;13.03;8.30;;;2.10;1.00;;;;;;5013113;28;20582;-74
2022/01/07 05:25:27;;;;;;;13.33;8.73;;;2.00;1.00;;;;;;5012983;28;20204;-73
2022/01/07 05:27:53;;;;;;;21.33;8.30;;;1.90;1.00;;;;;;5013320;28;20251;-73
2022/01/07 05:30:22;;;;;;;12.57;6.13;;;1.90;1.00;;;;;;4994436;28;20721;-71
2022/01/07 05:32:48;;;;;;;17.92;8.68;;;1.90;1.00;;;;;;5013226;28;20626;-73
2022/01/07 05:35:13;;;;;;;18.50;8.37;;;1.90;1.00;;;;;;5012931;28;20263;-71
2022/01/07 05:37:39;;;;;;;13.30;8.70;;;1.90;1.00;;;;;;5013154;28;20172;-74
2022/01/07 05:40:05;;;;;;;15.40;8.77;;;1.90;1.00;;;;;;5012110;28;20550;-73
2022/01/07 05:42:31;;;;;;;17.20;9.20;;;1.90;1.00;;;;;;4995562;28;20502;-73
2022/01/07 05:44:57;;;;;;;8.00;7.33;;;1.90;1.00;;;;;;5012767;28;20422;-72
2022/01/07 05:47:22;;;;;;;13.50;8.57;;;1.90;1.00;;;;;;5013388;28;20160;-71
2022/01/07 05:49:48;;;;;;;12.90;7.90;;;1.90;1.00;;;;;;5015284;28;20418;-70
2022/01/07 05:52:13;;;;;;;12.03;9.10;;;1.90;1.00;;;;;;5016606;28;20779;-73
2022/01/07 05:54:39;;;;;;;15.00;10.93;;;1.90;1.00;;;;;;5016536;28;20180;-71
2022/01/07 05:57:06;;;;;;;12.73;7.93;;;1.90;1.00;;;;;;5016453;28;20164;-73
2022/01/07 05:59:31;;;;;;;17.55;8.60;;;1.90;1.00;;;;;;5015109;28;20208;-74
2022/01/07 06:01:57;;;;;;;13.23;7.93;;;1.90;1.00;;;;;;5016256;28;20644;-70
2022/01/07 06:04:22;;;;;;;15.00;6.80;;;1.90;1.00;;;;;;5016051;28;20764;-73
2022/01/07 06:06:48;;;;;;;13.10;8.33;;;1.90;1.00;;;;;;5016598;28;20177;-70
2022/01/07 06:09:14;;;;;;;12.97;9.60;;;1.90;1.00;;;;;;5015118;28;20549;-70
2022/01/07 06:11:39;;;;;;;8.53;7.60;;;1.90;1.00;;;;;;5016203;28;20184;-74
2022/01/07 06:14:05;;;;;;;8.30;7.43;;;1.90;1.00;;;;;;5015706;28;20168;-73
2022/01/07 06:16:30;;;;;;;13.63;8.60;;;1.90;1.00;;;;;;4998417;28;20172;-70
2022/01/07 06:18:59;;;;;;;10.00;8.23;;;1.90;1.00;;;;;;5014962;28;20204;-74
2022/01/07 06:21:25;;;;;;;12.57;9.45;;;1.90;1.00;;;;;;5015970;28;20266;-70
2022/01/07 06:23:50;;;;;;;11.43;9.15;;;1.90;1.00;;;;;;5015720;28;20172;-73
2022/01/07 06:26:17;;;;;;;9.00;7.83;;;1.90;1.00;;;;;;5015998;28;20648;-70
2022/01/07 06:28:44;;;;;;;10.93;8.07;;;1.90;1.00;;;;;;5015131;28;20207;-73
2022/01/07 06:31:09;;;;;;;9.40;7.25;;;1.90;1.00;;;;;;5015475;28;20200;-70
2022/01/07 06:33:35;;;;;;;17.90;8.73;;;1.90;1.00;;;;;;5015905;28;20172;-73
2022/01/07 06:36:01;;;;;;;11.80;9.03;;;1.90;1.00;;;;;;5015447;28;20675;-70
2022/01/07 06:38:26;;;;;;;9.47;7.30;;;1.90;1.00;;;;;;5015459;28;20537;-70
2022/01/07 06:40:52;;;;;;;14.30;7.03;;;1.90;1.00;;;;;;5014605;28;20207;-70
2022/01/07 06:43:17;;;;;;;8.97;5.50;;;1.90;1.00;;;;;;4998107;28;20168;-72
2022/01/07 06:45:45;;;;;;;9.13;6.60;;;1.90;1.00;;;;;;5015326;28;20510;-70
2022/01/07 06:48:12;;;;;;;10.88;7.50;;;1.90;1.00;;;;;;4997823;28;20346;-72
2022/01/07 06:50:38;;;;;;;13.60;8.30;;;1.90;1.00;;;;;;4996804;28;20558;-71
2022/01/07 06:53:04;;;;;;;9.17;8.30;;;2.00;1.00;;;;;;4998049;28;20421;-70
2022/01/07 06:55:29;;;;;;;22.50;9.70;;;2.00;1.00;;;;;;5015442;28;20233;-72
2022/01/07 06:57:56;;;;;;;9.57;8.40;;;2.00;1.00;;;;;;5014971;28;20200;-70
2022/01/07 07:00:21;;;;;;;9.68;6.57;;;2.00;1.00;;;;;;5013974;28;20215;-72
2022/01/07 07:02:47;;;;;;;16.60;9.80;;;1.90;1.00;;;;;;5015020;28;20207;-72
2022/01/07 07:05:13;;;;;;;10.20;8.30;;;1.90;1.00;;;;;;5015236;28;20176;-69
2022/01/07 07:07:38;;;;;;;11.70;8.13;;;1.90;1.00;;;;;;4997441;28;20199;-70
2022/01/07 07:10:07;;;;;;;25.87;9.40;;;1.90;1.00;;;;;;5014081;28;20271;-73
2022/01/07 07:12:33;;;;;;;12.95;8.32;;;1.90;1.00;;;;;;5014797;28;20172;-72
2022/01/07 07:14:58;;;;;;;10.87;8.43;;;1.90;1.00;;;;;;5015064;28;20234;-70
2022/01/07 07:17:25;;;;;;;9.73;7.97;;;1.90;1.00;;;;;;5014843;28;20203;-70
2022/01/07 07:19:51;;;;;;;16.37;10.70;;;2.00;1.00;;;;;;5013923;28;20204;-70
2022/01/07 07:22:17;;;;;;;7.53;6.20;;;2.00;1.00;;;;;;5014603;28;20474;-71
2022/01/07 07:24:42;;;;;;;9.27;8.23;;;2.00;1.00;;;;;;5014876;28;20398;-70
2022/01/07 07:27:08;;;;;;;14.87;8.00;;;2.10;1.00;;;;;;5014633;28;20171;-73
2022/01/07 07:29:34;;;;;;;14.20;10.40;;;2.10;1.00;;;;;;5013790;28;20764;-72
2022/01/07 07:32:03;;;;;;;14.37;9.93;;;2.00;1.00;;;;;;5014554;28;20183;-70
2022/01/07 07:34:54;;;;;;;8.77;7.75;;;2.00;1.00;;;;;;4995026;28;20204;-73
2022/01/07 07:37:17;;;;;;;8.75;7.85;;;2.00;1.00;;;;;;4996931;28;20180;-73
2022/01/07 07:39:43;;;;;;;16.97;10.10;;;2.00;1.00;;;;;;5013492;28;20196;-73
2022/01/07 07:42:09;;;;;;;15.17;8.27;;;2.00;1.00;;;;;;5014377;28;20172;-71
2022/01/07 07:44:34;;;;;;;11.83;9.83;;;2.00;1.00;;;;;;5014177;28;20207;-71
2022/01/07 07:47:00;;;;;;;11.67;7.17;;;2.00;1.00;;;;;;4996816;28;20176;-70
2022/01/07 07:49:26;;;;;;;14.00;7.83;;;2.10;1.00;;;;;;5012823;28;20176;-69
2022/01/07 07:51:52;;;;;;;10.82;7.95;;;2.00;1.00;;;;;;5014119;28;20208;-69
2022/01/07 07:54:18;;;;;;;11.90;9.27;;;2.00;1.00;;;;;;5013996;28;20645;-70
2022/01/07 07:56:44;;;;;;;17.80;8.07;;;2.00;1.00;;;;;;4996519;28;20250;-73
2022/01/07 07:59:10;;;;;;;8.33;7.50;;;2.00;1.00;;;;;;5013015;28;20955;-70
2022/01/07 08:01:36;;;;;;;10.13;9.00;;;2.10;1.00;;;;;;5013709;28;20608;-70
2022/01/07 08:04:03;;;;;;;12.57;10.00;;;2.10;1.00;;;;;;5013812;28;20529;-72
2022/01/07 08:06:29;;;;;;;15.20;7.82;;;2.10;1.00;;;;;;5014280;28;20392;-69
2022/01/07 08:08:55;;;;;;;13.90;8.30;;;2.10;1.00;;;;;;5012564;28;20187;-72
2022/01/07 08:11:23;;;;;;;11.13;7.30;;;2.10;1.00;;;;;;5013495;28;20191;-70
2022/01/07 08:16:33;;;;;;;13.15;7.70;;;2.10;1.00;;;;;;5014377;28;20446;-70
2022/01/07 08:18:59;;;;;;;11.20;7.93;;;2.10;1.00;;;;;;5013276;28;20204;-70
2022/01/07 08:21:29;;;;;;;8.83;8.07;;;2.10;1.00;;;;;;4996196;28;20423;-72
2022/01/07 08:23:56;;;;;;;16.33;11.57;;;2.10;1.00;;;;;;5013886;28;20404;-69
2022/01/07 08:26:23;;;;;;;8.63;7.90;;;2.10;1.00;;;;;;5013896;28;20215;-72
2022/01/07 08:28:59;;;;;;;10.93;8.90;;;2.10;1.00;;;;;;5013195;28;20422;-70
2022/01/07 08:34:53;;;;;;;14.80;8.27;;;2.20;1.00;;;;;;5013888;28;20298;-69
2022/01/07 08:36:55;;;;;;;12.75;9.45;;;2.20;1.00;;;;;;5013899;28;20414;-70
2022/01/07 08:39:22;;;;;;;11.40;9.80;;;2.10;1.00;;;;;;5012977;28;20208;-70
2022/01/07 08:41:48;;;;;;;11.80;9.43;;;2.10;1.00;;;;;;5013662;28;20422;-72
2022/01/07 08:44:13;;;;;;;14.30;8.67;;;2.10;1.00;;;;;;5013600;28;20403;-72
2022/01/07 08:46:39;;;;;;;12.50;8.60;;;2.20;1.00;;;;;;5013708;28;20687;-69
2022/01/07 08:49:05;;;;;;;9.93;8.87;;;2.20;1.00;;;;;;5012874;28;20637;-73
2022/01/07 08:51:31;;;;;;;10.37;7.03;;;2.20;1.00;;;;;;5013435;28;20580;-69
2022/01/07 08:53:57;;;;;;;9.57;7.37;;;2.30;1.00;;;;;;5013673;28;20423;-72
2022/01/07 08:56:24;;;;;;;9.67;7.83;;;2.20;1.00;;;;;;5013566;28;20407;-72
2022/01/07 08:58:54;;;;;;;14.35;8.77;;;2.20;1.00;;;;;;5012776;28;20513;-72
2022/01/07 09:01:22;;;;;;;10.57;7.77;;;2.20;1.00;;;;;;5013278;28;20200;-72
2022/01/07 09:03:47;;;;;;;9.13;8.03;;;2.20;1.00;;;;;;5013540;28;20400;-72
2022/01/07 09:06:13;;;;;;;14.00;8.67;;;2.20;1.00;;;;;;5013508;28;20406;-71
2022/01/07 09:08:39;;;;;;;12.67;8.33;;;2.20;1.00;;;;;;5012932;28;20434;-72
2022/01/07 09:11:04;;;;;;;9.67;7.00;;;2.20;1.00;;;;;;5013303;28;20245;-68
2022/01/07 09:13:30;;;;;;;9.43;7.30;;;2.20;1.00;;;;;;5013404;28;20176;-71
2022/01/07 09:15:56;;;;;;;11.70;7.93;;;2.20;1.00;;;;;;5013363;28;20156;-68
2022/01/07 09:18:22;;;;;;;11.17;8.13;;;2.20;1.00;;;;;;5013096;28;20208;-69
2022/01/07 09:20:48;;;;;;;10.80;7.47;;;2.20;1.00;;;;;;5012912;28;20203;-72
2022/01/07 09:23:15;;;;;;;13.90;8.20;;;2.20;1.00;;;;;;5015164;28;20406;-69
2022/01/07 09:25:41;;;;;;;9.93;7.30;;;2.20;1.00;;;;;;5017148;28;20485;-68
2022/01/07 09:28:08;;;;;;;11.60;7.83;;;2.20;1.00;;;;;;5017100;28;20403;-69
2022/01/07 09:30:35;;;;;;;11.97;8.27;;;2.30;1.00;;;;;;5016277;28;20903;-68
2022/01/07 09:33:01;;;;;;;9.03;7.90;;;2.30;1.00;;;;;;5017145;28;20407;-71
2022/01/07 09:35:27;;;;;;;11.27;7.87;;;2.30;1.00;;;;;;5016798;28;20410;-69
2022/01/07 09:37:53;;;;;;;10.83;7.33;;;2.30;1.00;;;;;;4999229;28;20576;-68
2022/01/07 09:40:19;;;;;;;7.90;7.17;;;2.30;1.00;;;;;;5016214;28;20192;-69
2022/01/07 09:43:05;;;;;;;14.65;9.20;;;2.20;1.00;;;;;;5016778;28;20417;-69
2022/01/07 09:45:33;;;;;;;7.23;6.63;;;2.30;1.00;;;;;;5016795;28;20172;-69
2022/01/07 09:48:01;;;;;;;9.43;8.10;;;2.20;1.00;;;;;;5016634;28;20914;-72
2022/01/07 09:50:28;;;;;;;9.20;7.27;;;2.20;1.00;;;;;;5015833;28;20433;-69
2022/01/07 09:52:53;;;;;;;8.00;6.83;;;2.20;1.00;;;;;;5016560;28;20804;-68
2022/01/07 09:55:20;;;;;;;8.07;6.60;;;2.20;1.00;;;;;;5016494;28;20446;-69
2022/01/07 09:57:46;;;;;;;6.10;4.93;;;2.30;1.00;;;;;;5016300;28;20407;-71
2022/01/07 10:00:12;;;;;;;7.67;6.23;;;2.30;1.00;;;;;;5015789;28;20533;-68
2022/01/07 10:02:57;;;;;;;9.17;8.23;;;2.20;1.00;;;;;;5016348;28;20406;-72
2022/01/07 10:05:23;;;;;;;8.57;7.85;;;2.30;1.00;;;;;;5015967;28;20470;-69
2022/01/07 10:07:48;;;;;;;8.17;7.37;;;2.30;1.00;;;;;;5016127;28;20649;-69
2022/01/07 10:10:18;;;;;;;10.93;7.57;;;2.30;1.00;;;;;;5015295;28;20528;-68
2022/01/07 10:12:55;;;;;;;7.70;7.00;;;2.30;1.00;;;;;;5016328;28;20287;-69
2022/01/07 10:15:24;;;;;;;6.77;5.73;;;2.30;1.00;;;;;;5015972;28;20906;-72
2022/01/07 10:17:58;;;;;;;5.53;5.00;;;2.30;1.00;;;;;;5016079;28;20457;-73
2022/01/07 10:20:26;;;;;;;8.63;7.83;;;2.30;1.00;;;;;;5015414;28;20554;-72
2022/01/07 10:22:56;;;;;;;9.00;7.30;;;2.30;1.00;;;;;;4998407;28;20523;-68
2022/01/07 10:25:24;;;;;;;12.17;8.00;;;2.30;1.00;;;;;;5016094;28;20407;-69
2022/01/07 10:27:50;;;;;;;7.30;5.80;;;2.30;1.00;;;;;;5015990;28;20453;-71
2022/01/07 10:30:25;;;;;;;7.90;7.20;;;2.30;1.00;;;;;;5015138;28;20431;-69
2022/01/07 10:32:53;;;;;;;13.90;7.53;;;2.30;1.00;;;;;;5015517;28;20581;-71
2022/01/07 10:35:21;;;;;;;11.37;8.43;;;2.30;1.00;;;;;;5015598;28;20411;-69
2022/01/07 10:37:57;;;;;;;8.70;7.30;;;2.30;1.00;;;;;;5015583;28;20400;-72
2022/01/07 10:40:25;;;;;;;12.23;7.10;;;2.40;1.00;;;;;;5014952;28;20443;-68
2022/01/07 10:43:07;;;;;;;9.57;7.20;;;2.40;1.00;;;;;;5015623;28;20884;-69
2022/01/07 10:45:33;;;;;;;9.47;8.33;;;2.40;1.00;;;;;;5015722;28;20902;-72
2022/01/07 10:53:12;;;;;;;7.65;6.90;;;2.40;1.00;;;;;;5070945;28;20532;-71
2022/01/07 10:55:38;;;;;;;7.80;7.03;;;2.40;1.00;;;;;;5069532;28;20174;-67
2022/01/07 10:58:04;;;;;;;9.97;6.70;;;2.50;1.00;;;;;;5069423;28;20415;-69
2022/01/07 11:00:36;;;;;;;23.38;7.03;;;2.50;1.00;;;;;;5069860;28;20186;-69
2022/01/07 11:03:07;;;;;;;8.43;6.60;;;2.50;1.00;;;;;;5069292;28;20217;-69
2022/01/07 11:05:33;;;;;;;7.75;6.95;;;2.50;1.00;;;;;;5070588;28;20401;-68
2022/01/07 11:08:01;;;;;;;12.70;8.47;;;2.40;1.00;;;;;;5070360;28;20185;-73
2022/01/07 11:10:28;;;;;;;9.50;7.93;;;2.30;1.00;;;;;;5069513;28;20181;-72
2022/01/07 11:12:56;;;;;;;10.80;8.10;;;2.30;1.00;;;;;;5070589;28;20400;-69
2022/01/07 11:15:22;;;;;;;8.20;7.07;;;2.30;1.00;;;;;;5069045;28;20407;-69
2022/01/07 11:17:47;;;;;;;7.07;6.13;;;2.30;1.00;;;;;;5070549;28;20796;-72
2022/01/07 11:20:16;;;;;;;11.80;8.20;;;2.30;1.00;;;;;;5069423;28;20208;-71
2022/01/07 11:22:47;;;;;;;10.00;7.90;;;2.30;1.00;;;;;;5070265;28;20174;-70
2022/01/07 11:25:15;;;;;;;8.60;7.40;;;2.30;1.00;;;;;;5070387;28;20416;-70
2022/01/07 11:27:57;;;;;;;10.33;7.37;;;2.40;1.00;;;;;;5070248;28;20405;-73
2022/01/07 11:30:28;;;;;;;10.60;8.67;;;2.40;1.00;;;;;;5069212;28;20436;-70
2022/01/07 11:32:54;;;;;;;8.93;7.90;;;2.40;1.00;;;;;;5070115;28;20408;-70
2022/01/07 11:35:20;;;;;;;10.20;8.27;;;2.40;1.00;;;;;;5069955;28;20416;-72
2022/01/07 11:37:47;;;;;;;8.70;6.63;;;2.50;1.00;;;;;;5069961;28;20793;-72
2022/01/07 11:40:33;;;;;;;9.83;8.00;;;2.50;1.00;;;;;;5069102;28;20181;-74
2022/01/07 11:43:31;;;;;;;9.47;8.53;;;2.50;1.00;;;;;;5069929;28;20542;-71
2022/01/07 11:45:58;;;;;;;7.97;7.23;;;2.50;1.00;;;;;;5069719;28;20405;-73
2022/01/07 11:48:27;;;;;;;10.30;7.63;;;2.50;1.00;;;;;;5069487;28;20393;-72
2022/01/07 11:50:55;;;;;;;11.93;8.90;;;2.50;1.00;;;;;;5069162;28;20867;-70
2022/01/07 11:53:28;;;;;;;16.10;9.07;;;2.60;1.00;;;;;;5069549;28;20404;-73
2022/01/07 11:56:01;;;;;;;17.83;9.10;;;2.60;1.00;;;;;;5069496;28;20792;-72
2022/01/07 11:58:44;;;;;;;16.60;8.97;;;2.70;1.00;;;;;;5068285;28;20466;-71
2022/01/07 12:01:31;;;;;;;13.53;9.10;;;2.70;1.00;;;;;;5069284;28;20460;-73
2022/01/07 12:03:59;;;;;;;12.30;9.27;;;2.70;1.00;;;;;;5057184;28;20401;-73
2022/01/07 12:06:29;;;;;;;8.07;6.57;;;2.70;1.00;;;;;;5056019;28;20905;-72
2022/01/07 12:09:05;;;;;;;19.37;9.33;;;2.70;1.00;;;;;;5055348;28;20750;-70
2022/01/07 12:11:42;;;;;;;15.40;9.77;;;2.70;1.00;;;;;;5055989;28;20515;-73
2022/01/07 12:14:19;;;;;;;11.80;9.20;;;2.70;1.00;;;;;;5056069;28;20421;-72
2022/01/07 12:16:50;;;;;;;17.00;11.40;;;2.80;1.00;;;;;;5054528;28;20409;-72
2022/01/07 12:19:19;;;;;;;15.27;9.10;;;2.80;1.00;;;;;;5055283;28;20401;-71
2022/01/07 12:21:46;;;;;;;15.30;10.90;;;2.80;1.00;;;;;;5054521;28;20455;-71
2022/01/07 12:24:14;;;;;;;9.50;7.93;;;2.80;1.00;;;;;;5055889;28;20406;-70
2022/01/07 12:26:40;;;;;;;16.77;10.00;;;2.90;1.00;;;;;;5055764;28;20409;-71
2022/01/07 12:29:13;;;;;;;16.47;11.03;;;2.90;1.00;;;;;;5055094;28;20424;-73
2022/01/07 12:31:52;;;;;;;19.80;11.77;;;2.90;1.00;;;;;;5055718;28;20460;-71
2022/01/07 12:34:25;;;;;;;12.87;8.00;;;3.00;1.00;;;;;;5054464;28;20406;-71
2022/01/07 12:36:56;;;;;;;14.90;10.33;;;3.00;1.00;;;;;;5055485;28;20436;-74
2022/01/07 12:39:29;;;;;;;13.23;9.13;;;3.10;1.00;;;;;;5054996;28;20398;-73
2022/01/07 12:41:56;;;;;;;8.93;8.00;;;3.10;1.00;;;;;;5055384;28;20415;-74
2022/01/07 12:44:22;;;;;;;16.40;12.30;;;3.10;1.00;;;;;;5055503;28;20769;-74
2022/01/07 12:46:57;;;;;;;17.00;11.60;;;3.20;1.00;;;;;;5054051;28;20406;-74
2022/01/07 12:49:55;;;;;;;13.30;8.47;;;3.20;1.00;;;;;;5054622;28;20904;-71
2022/01/07 12:52:30;;;;;;;12.40;10.13;;;3.20;1.00;;;;;;5055057;28;20463;-73
2022/01/07 12:55:02;;;;;;;12.57;9.33;;;3.20;1.00;;;;;;5055005;28;20397;-72
2022/01/07 12:57:36;;;;;;;15.67;9.67;;;3.20;1.00;;;;;;5055148;28;20402;-71
2022/01/07 13:00:26;;;;;;;13.17;10.63;;;3.20;1.00;;;;;;5054411;28;20410;-71
2022/01/07 13:03:12;;;;;;;22.17;10.67;;;3.20;1.00;;;;;;5054994;28;20821;-72
2022/01/07 13:05:44;;;;;;;15.80;9.63;;;3.30;1.00;;;;;;5054961;28;20421;-73
2022/01/07 13:08:11;;;;;;;12.17;9.77;;;3.30;1.00;;;;;;5055069;28;20397;-73